sensor_id;sensor_type;location;lat;lon;timestamp;pressure;altitude;pressure_sealevel;temperature;humidity
71770;BME280;59605;52.122;5.420;2022-07-06T00:01:55;102674.56;;;22.35;46.93
71770;BME280;59605;52.122;5.420;2022-07-06T00:04:21;102688.50;;;22.35;46.71
71770;BME280;59605;52.122;5.420;2022-07-06T00:06:48;102685.97;;;22.34;46.89
71770;BME280;59605;52.122;5.420;2022-07-06T00:09:15;102680.72;;;22.34;46.77
71770;BME280;59605;52.122;5.420;2022-07-06T00:11:41;102683.34;;;22.34;46.62
71770;BME280;59605;52.122;5.420;2022-07-06T00:14:07;102683.34;;;22.34;46.99
71770;BME280;59605;52.122;5.420;2022-07-06T00:16:34;102681.66;;;22.33;46.85
71770;BME280;59605;52.122;5.420;2022-07-06T00:19:01;102680.72;;;22.34;46.91
71770;BME280;59605;52.122;5.420;2022-07-06T00:21:27;102686.91;;;22.33;46.79
71770;BME280;59605;52.122;5.420;2022-07-06T00:23:54;102678.25;;;22.30;46.56
71770;BME280;59605;52.122;5.420;2022-07-06T00:26:20;102672.97;;;22.32;47.01
71770;BME280;59605;52.122;5.420;2022-07-06T00:28:46;102675.66;;;22.30;46.70
71770;BME280;59605;52.122;5.420;2022-07-06T00:31:13;102675.66;;;22.30;46.84
71770;BME280;59605;52.122;5.420;2022-07-06T00:33:39;102673.94;;;22.29;47.01
71770;BME280;59605;52.122;5.420;2022-07-06T00:36:06;102668.63;;;22.31;46.54
71770;BME280;59605;52.122;5.420;2022-07-06T00:38:32;102679.19;;;22.29;46.68
71770;BME280;59605;52.122;5.420;2022-07-06T00:40:59;102674.81;;;22.30;46.66
71770;BME280;59605;52.122;5.420;2022-07-06T00:43:25;102673.94;;;22.29;46.97
71770;BME280;59605;52.122;5.420;2022-07-06T00:45:52;102673.13;;;22.29;46.88
71770;BME280;59605;52.122;5.420;2022-07-06T00:48:18;102674.03;;;22.28;46.94
71770;BME280;59605;52.122;5.420;2022-07-06T00:50:45;102673.94;;;22.29;46.93
71770;BME280;59605;52.122;5.420;2022-07-06T00:53:12;102666.19;;;22.28;46.57
71770;BME280;59605;52.122;5.420;2022-07-06T00:55:39;102673.22;;;22.27;47.00
71770;BME280;59605;52.122;5.420;2022-07-06T00:58:08;102667.13;;;22.27;47.08
71770;BME280;59605;52.122;5.420;2022-07-06T01:00:35;102668.81;;;22.28;46.75
71770;BME280;59605;52.122;5.420;2022-07-06T01:03:02;102668.88;;;22.26;46.79
71770;BME280;59605;52.122;5.420;2022-07-06T01:05:29;102676.75;;;22.26;46.98
71770;BME280;59605;52.122;5.420;2022-07-06T01:07:55;102675.81;;;22.27;46.91
71770;BME280;59605;52.122;5.420;2022-07-06T01:10:23;102684.59;;;22.26;46.77
71770;BME280;59605;52.122;5.420;2022-07-06T01:12:49;102690.78;;;22.25;46.85
71770;BME280;59605;52.122;5.420;2022-07-06T01:15:19;102689.09;;;22.24;47.01
71770;BME280;59605;52.122;5.420;2022-07-06T01:17:46;102689.84;;;22.26;47.25
71770;BME280;59605;52.122;5.420;2022-07-06T01:20:23;102687.31;;;22.25;47.00
71770;BME280;59605;52.122;5.420;2022-07-06T01:22:51;102689.94;;;22.25;47.15
71770;BME280;59605;52.122;5.420;2022-07-06T01:25:19;102687.41;;;22.23;47.21
71770;BME280;59605;52.122;5.420;2022-07-06T01:27:45;102685.72;;;22.22;47.19
71770;BME280;59605;52.122;5.420;2022-07-06T01:30:16;102689.19;;;22.23;47.22
71770;BME280;59605;52.122;5.420;2022-07-06T01:32:43;102683.00;;;22.24;47.15
71770;BME280;59605;52.122;5.420;2022-07-06T01:35:13;102681.34;;;22.23;47.17
71770;BME280;59605;52.122;5.420;2022-07-06T01:37:40;102671.69;;;22.23;46.77
71770;BME280;59605;52.122;5.420;2022-07-06T01:40:09;102670.94;;;22.21;47.25
71770;BME280;59605;52.122;5.420;2022-07-06T01:42:35;102671.78;;;22.22;47.03
71770;BME280;59605;52.122;5.420;2022-07-06T01:45:04;102671.88;;;22.20;47.18
71770;BME280;59605;52.122;5.420;2022-07-06T01:47:30;102670.09;;;22.21;47.04
71770;BME280;59605;52.122;5.420;2022-07-06T01:49:58;102669.25;;;22.20;47.09
71770;BME280;59605;52.122;5.420;2022-07-06T01:52:26;102671.88;;;22.20;46.80
71770;BME280;59605;52.122;5.420;2022-07-06T01:54:56;102664.00;;;22.20;47.14
71770;BME280;59605;52.122;5.420;2022-07-06T01:57:23;102666.63;;;22.20;47.14
71770;BME280;59605;52.122;5.420;2022-07-06T01:59:49;102662.41;;;22.18;46.85
71770;BME280;59605;52.122;5.420;2022-07-06T02:02:16;102666.63;;;22.20;47.13
71770;BME280;59605;52.122;5.420;2022-07-06T02:04:43;102662.31;;;22.19;47.41
71770;BME280;59605;52.122;5.420;2022-07-06T02:07:09;102671.97;;;22.19;47.28
71770;BME280;59605;52.122;5.420;2022-07-06T02:09:36;102670.25;;;22.18;47.35
71770;BME280;59605;52.122;5.420;2022-07-06T02:12:02;102667.63;;;22.18;46.87
71770;BME280;59605;52.122;5.420;2022-07-06T02:14:29;102671.13;;;22.18;47.01
71770;BME280;59605;52.122;5.420;2022-07-06T02:16:55;102670.25;;;22.18;47.21
71770;BME280;59605;52.122;5.420;2022-07-06T02:19:22;102674.66;;;22.17;46.78
71770;BME280;59605;52.122;5.420;2022-07-06T02:21:48;102673.75;;;22.18;46.85
71770;BME280;59605;52.122;5.420;2022-07-06T02:24:14;102662.41;;;22.18;47.09
71770;BME280;59605;52.122;5.420;2022-07-06T02:26:41;102661.66;;;22.16;47.07
71770;BME280;59605;52.122;5.420;2022-07-06T02:29:07;102665.97;;;22.17;46.80
71770;BME280;59605;52.122;5.420;2022-07-06T02:31:34;102661.66;;;22.16;47.09
71770;BME280;59605;52.122;5.420;2022-07-06T02:34:00;102663.41;;;22.15;46.73
71770;BME280;59605;52.122;5.420;2022-07-06T02:36:26;102660.78;;;22.15;46.95
71770;BME280;59605;52.122;5.420;2022-07-06T02:38:53;102661.66;;;22.16;47.07
71770;BME280;59605;52.122;5.420;2022-07-06T02:41:19;102664.38;;;22.14;47.10
71770;BME280;59605;52.122;5.420;2022-07-06T02:43:45;102672.22;;;22.14;47.06
71770;BME280;59605;52.122;5.420;2022-07-06T02:46:12;102669.59;;;22.14;47.13
71770;BME280;59605;52.122;5.420;2022-07-06T02:48:38;102669.59;;;22.14;47.16
71770;BME280;59605;52.122;5.420;2022-07-06T02:51:05;102667.91;;;22.13;47.32
71770;BME280;59605;52.122;5.420;2022-07-06T02:53:31;102677.47;;;22.14;47.05
71770;BME280;59605;52.122;5.420;2022-07-06T02:55:58;102672.22;;;22.14;47.23
71770;BME280;59605;52.122;5.420;2022-07-06T02:58:24;102669.69;;;22.12;47.22
71770;BME280;59605;52.122;5.420;2022-07-06T03:00:51;102675.69;;;22.14;47.16
71770;BME280;59605;52.122;5.420;2022-07-06T03:03:17;102672.22;;;22.14;47.02
71770;BME280;59605;52.122;5.420;2022-07-06T03:05:44;102680.09;;;22.14;47.35
71770;BME280;59605;52.122;5.420;2022-07-06T03:08:12;102670.53;;;22.13;47.08
71770;BME280;59605;52.122;5.420;2022-07-06T03:10:39;102677.56;;;22.12;47.11
71770;BME280;59605;52.122;5.420;2022-07-06T03:13:05;102669.69;;;22.12;47.13
71770;BME280;59605;52.122;5.420;2022-07-06T03:15:32;102669.78;;;22.11;47.01
71770;BME280;59605;52.122;5.420;2022-07-06T03:17:58;102676.78;;;22.10;46.96
71770;BME280;59605;52.122;5.420;2022-07-06T03:20:25;102679.31;;;22.12;47.22
71770;BME280;59605;52.122;5.420;2022-07-06T03:22:51;102687.16;;;22.12;46.95
71770;BME280;59605;52.122;5.420;2022-07-06T03:25:17;102679.41;;;22.10;47.25
71770;BME280;59605;52.122;5.420;2022-07-06T03:27:44;102682.88;;;22.11;46.95
71770;BME280;59605;52.122;5.420;2022-07-06T03:30:10;102689.88;;;22.10;47.29
71770;BME280;59605;52.122;5.420;2022-07-06T03:32:40;102687.16;;;22.12;46.88
71770;BME280;59605;52.122;5.420;2022-07-06T03:35:06;102686.41;;;22.10;47.13
71770;BME280;59605;52.122;5.420;2022-07-06T03:37:33;102684.63;;;22.10;47.13
71770;BME280;59605;52.122;5.420;2022-07-06T03:39:59;102689.03;;;22.10;47.32
71770;BME280;59605;52.122;5.420;2022-07-06T03:42:26;102681.19;;;22.10;47.26
71770;BME280;59605;52.122;5.420;2022-07-06T03:44:52;102681.19;;;22.10;47.15
71770;BME280;59605;52.122;5.420;2022-07-06T03:47:18;102675.94;;;22.10;47.14
71770;BME280;59605;52.122;5.420;2022-07-06T03:49:45;102674.25;;;22.09;47.17
71770;BME280;59605;52.122;5.420;2022-07-06T03:52:11;102683.81;;;22.10;47.37
71770;BME280;59605;52.122;5.420;2022-07-06T03:54:37;102679.47;;;22.09;47.08
71770;BME280;59605;52.122;5.420;2022-07-06T03:57:04;102682.00;;;22.10;47.42
71770;BME280;59605;52.122;5.420;2022-07-06T03:59:30;102679.47;;;22.09;47.25
71770;BME280;59605;52.122;5.420;2022-07-06T04:01:57;102673.41;;;22.08;47.06
71770;BME280;59605;52.122;5.420;2022-07-06T04:04:23;102680.34;;;22.09;47.09
71770;BME280;59605;52.122;5.420;2022-07-06T04:06:50;102677.72;;;22.09;47.33
71770;BME280;59605;52.122;5.420;2022-07-06T04:09:16;102676.03;;;22.08;47.27
71770;BME280;59605;52.122;5.420;2022-07-06T04:11:42;102674.25;;;22.09;47.39
71770;BME280;59605;52.122;5.420;2022-07-06T04:14:09;102669.97;;;22.08;47.47
71770;BME280;59605;52.122;5.420;2022-07-06T04:16:35;102664.72;;;22.08;47.50
71770;BME280;59605;52.122;5.420;2022-07-06T04:19:02;102668.25;;;22.07;47.47
71770;BME280;59605;52.122;5.420;2022-07-06T04:21:28;102676.22;;;22.05;47.18
71770;BME280;59605;52.122;5.420;2022-07-06T04:23:54;102673.50;;;22.07;47.17
71770;BME280;59605;52.122;5.420;2022-07-06T04:26:21;102678.75;;;22.07;47.13
71770;BME280;59605;52.122;5.420;2022-07-06T04:28:47;102677.88;;;22.06;47.40
71770;BME280;59605;52.122;5.420;2022-07-06T04:31:14;102670.97;;;22.05;47.33
71770;BME280;59605;52.122;5.420;2022-07-06T04:33:42;102663.94;;;22.06;47.40
71770;BME280;59605;52.122;5.420;2022-07-06T04:36:11;102673.59;;;22.05;47.18
71770;BME280;59605;52.122;5.420;2022-07-06T04:38:37;102670.03;;;22.06;47.53
71770;BME280;59605;52.122;5.420;2022-07-06T04:41:04;102671.81;;;22.06;47.52
71770;BME280;59605;52.122;5.420;2022-07-06T04:43:31;102674.41;;;22.06;47.61
71770;BME280;59605;52.122;5.420;2022-07-06T04:45:57;102677.13;;;22.04;47.26
71770;BME280;59605;52.122;5.420;2022-07-06T04:48:24;102671.81;;;22.06;47.26
71770;BME280;59605;52.122;5.420;2022-07-06T04:50:51;102679.75;;;22.04;47.43
71770;BME280;59605;52.122;5.420;2022-07-06T04:53:18;102673.59;;;22.05;47.51
71770;BME280;59605;52.122;5.420;2022-07-06T04:55:44;102670.03;;;22.06;47.49
71770;BME280;59605;52.122;5.420;2022-07-06T04:58:10;102673.59;;;22.05;47.41
71770;BME280;59605;52.122;5.420;2022-07-06T05:00:37;102678.81;;;22.05;47.59
71770;BME280;59605;52.122;5.420;2022-07-06T05:03:03;102676.22;;;22.05;47.33
71770;BME280;59605;52.122;5.420;2022-07-06T05:05:29;102669.38;;;22.03;47.78
71770;BME280;59605;52.122;5.420;2022-07-06T05:07:56;102677.13;;;22.04;47.69
71770;BME280;59605;52.122;5.420;2022-07-06T05:10:25;102678.06;;;22.03;47.41
71770;BME280;59605;52.122;5.420;2022-07-06T05:12:51;102682.38;;;22.04;47.43
71770;BME280;59605;52.122;5.420;2022-07-06T05:15:18;102682.47;;;22.03;47.35
71770;BME280;59605;52.122;5.420;2022-07-06T05:17:44;102689.38;;;22.04;47.71
71770;BME280;59605;52.122;5.420;2022-07-06T05:20:11;102676.28;;;22.04;47.47
71770;BME280;59605;52.122;5.420;2022-07-06T05:22:37;102689.38;;;22.04;47.77
71770;BME280;59605;52.122;5.420;2022-07-06T05:25:11;102679.75;;;22.04;47.71
71770;BME280;59605;52.122;5.420;2022-07-06T05:27:37;102686.69;;;22.05;47.43
71770;BME280;59605;52.122;5.420;2022-07-06T05:30:05;102687.59;;;22.04;47.82
71770;BME280;59605;52.122;5.420;2022-07-06T05:32:31;102683.28;;;22.03;47.81
71770;BME280;59605;52.122;5.420;2022-07-06T05:34:57;102684.16;;;22.04;47.53
71770;BME280;59605;52.122;5.420;2022-07-06T05:37:44;102684.97;;;22.04;47.76
71770;BME280;59605;52.122;5.420;2022-07-06T05:40:11;102687.50;;;22.06;47.63
71770;BME280;59605;52.122;5.420;2022-07-06T05:42:37;102687.50;;;22.06;47.68
71770;BME280;59605;52.122;5.420;2022-07-06T05:45:05;102690.22;;;22.04;47.69
71770;BME280;59605;52.122;5.420;2022-07-06T05:47:31;102687.59;;;22.04;47.75
71770;BME280;59605;52.122;5.420;2022-07-06T05:50:16;102693.59;;;22.06;47.70
71770;BME280;59605;52.122;5.420;2022-07-06T05:52:44;102698.06;;;22.04;46.99
71770;BME280;59605;52.122;5.420;2022-07-06T05:55:12;102692.31;;;21.97;46.93
71770;BME280;59605;52.122;5.420;2022-07-06T05:57:38;102696.00;;;21.95;47.15
71770;BME280;59605;52.122;5.420;2022-07-06T06:00:07;102695.03;;;21.96;47.42
71770;BME280;59605;52.122;5.420;2022-07-06T06:02:38;102693.19;;;21.98;47.68
71770;BME280;59605;52.122;5.420;2022-07-06T06:05:09;102700.88;;;22.01;47.26
71770;BME280;59605;52.122;5.420;2022-07-06T06:07:36;102696.00;;;21.95;47.15
71770;BME280;59605;52.122;5.420;2022-07-06T06:10:05;102692.84;;;21.88;46.87
71770;BME280;59605;52.122;5.420;2022-07-06T06:12:32;102691.41;;;21.83;47.28
71770;BME280;59605;52.122;5.420;2022-07-06T06:14:59;102699.34;;;21.81;47.56
71770;BME280;59605;52.122;5.420;2022-07-06T06:17:25;102695.91;;;21.81;47.27
71770;BME280;59605;52.122;5.420;2022-07-06T06:19:52;102698.59;;;21.79;47.61
71770;BME280;59605;52.122;5.420;2022-07-06T06:22:18;102703.06;;;21.77;46.97
71770;BME280;59605;52.122;5.420;2022-07-06T06:24:45;102697.06;;;21.75;47.25
71770;BME280;59605;52.122;5.420;2022-07-06T06:27:11;102706.03;;;21.71;47.14
71770;BME280;59605;52.122;5.420;2022-07-06T06:29:38;102714.03;;;21.68;47.22
71770;BME280;59605;52.122;5.420;2022-07-06T06:32:05;102709.91;;;21.64;47.14
71770;BME280;59605;52.122;5.420;2022-07-06T06:34:32;102716.06;;;21.63;47.15
71770;BME280;59605;52.122;5.420;2022-07-06T06:36:58;102709.97;;;21.62;47.14
71770;BME280;59605;52.122;5.420;2022-07-06T06:39:25;102715.31;;;21.60;47.13
71770;BME280;59605;52.122;5.420;2022-07-06T06:41:51;102713.50;;;21.61;47.14
71770;BME280;59605;52.122;5.420;2022-07-06T06:44:17;102708.97;;;21.65;47.46
71770;BME280;59605;52.122;5.420;2022-07-06T06:46:44;102714.22;;;21.65;47.20
71770;BME280;59605;52.122;5.420;2022-07-06T06:49:10;102712.34;;;21.67;47.42
71770;BME280;59605;52.122;5.420;2022-07-06T06:51:36;102712.50;;;21.64;47.68
71770;BME280;59605;52.122;5.420;2022-07-06T06:54:06;102717.66;;;21.65;47.25
71770;BME280;59605;52.122;5.420;2022-07-06T06:56:32;102715.13;;;21.64;47.05
71770;BME280;59605;52.122;5.420;2022-07-06T06:58:59;102720.38;;;21.64;46.98
71770;BME280;59605;52.122;5.420;2022-07-06T07:01:43;102716.91;;;21.63;46.95
71770;BME280;59605;52.122;5.420;2022-07-06T07:04:10;102714.22;;;21.65;47.04
71770;BME280;59605;52.122;5.420;2022-07-06T07:06:37;102718.53;;;21.66;47.10
71770;BME280;59605;52.122;5.420;2022-07-06T07:09:03;102715.91;;;21.66;46.74
71770;BME280;59605;52.122;5.420;2022-07-06T07:11:31;102714.22;;;21.65;46.87
71770;BME280;59605;52.122;5.420;2022-07-06T07:13:57;102719.69;;;21.60;46.26
71770;BME280;59605;52.122;5.420;2022-07-06T07:16:24;102726.69;;;21.59;46.09
71770;BME280;59605;52.122;5.420;2022-07-06T07:18:50;102726.69;;;21.59;45.88
71770;BME280;59605;52.122;5.420;2022-07-06T07:21:17;102730.16;;;21.60;45.80
71770;BME280;59605;52.122;5.420;2022-07-06T07:23:44;102728.31;;;21.62;46.27
71770;BME280;59605;52.122;5.420;2022-07-06T07:26:10;102730.84;;;21.64;45.91
71770;BME280;59605;52.122;5.420;2022-07-06T07:28:37;102726.38;;;21.66;45.68
71770;BME280;59605;52.122;5.420;2022-07-06T07:31:04;102724.50;;;21.68;45.66
71770;BME280;59605;52.122;5.420;2022-07-06T07:33:30;102718.53;;;21.66;45.36
71770;BME280;59605;52.122;5.420;2022-07-06T07:35:57;102721.91;;;21.68;45.34
71770;BME280;59605;52.122;5.420;2022-07-06T07:38:23;102724.50;;;21.68;45.26
71770;BME280;59605;52.122;5.420;2022-07-06T07:40:53;102720.97;;;21.69;45.24
71770;BME280;59605;52.122;5.420;2022-07-06T07:43:19;102727.88;;;21.70;45.04
71770;BME280;59605;52.122;5.420;2022-07-06T07:45:47;102728.03;;;21.67;44.03
71770;BME280;59605;52.122;5.420;2022-07-06T07:48:13;102730.84;;;21.64;43.37
71770;BME280;59605;52.122;5.420;2022-07-06T07:50:42;102728.22;;;21.64;43.70
71770;BME280;59605;52.122;5.420;2022-07-06T07:53:08;102722.06;;;21.65;44.06
71770;BME280;59605;52.122;5.420;2022-07-06T07:55:35;102726.13;;;21.70;44.03
71770;BME280;59605;52.122;5.420;2022-07-06T07:58:07;102719.63;;;21.77;45.09
71770;BME280;59605;52.122;5.420;2022-07-06T08:00:34;102724.59;;;21.82;45.56
71770;BME280;59605;52.122;5.420;2022-07-06T08:03:00;102718.38;;;21.85;45.80
71770;BME280;59605;52.122;5.420;2022-07-06T08:05:26;102723.44;;;21.88;45.71
71770;BME280;59605;52.122;5.420;2022-07-06T08:07:53;102711.19;;;21.88;46.04
71770;BME280;59605;52.122;5.420;2022-07-06T08:10:19;102716.16;;;21.93;46.25
71770;BME280;59605;52.122;5.420;2022-07-06T08:12:46;102714.41;;;21.93;46.25
71770;BME280;59605;52.122;5.420;2022-07-06T08:15:12;102713.34;;;21.96;46.53
71770;BME280;59605;52.122;5.420;2022-07-06T08:17:39;102714.22;;;21.96;46.53
71770;BME280;59605;52.122;5.420;2022-07-06T08:20:06;102718.44;;;21.99;46.63
71770;BME280;59605;52.122;5.420;2022-07-06T08:22:35;102716.75;;;21.98;47.06
71770;BME280;59605;52.122;5.420;2022-07-06T08:25:03;102714.97;;;21.99;46.47
71770;BME280;59605;52.122;5.420;2022-07-06T08:27:29;102714.13;;;21.98;46.46
71770;BME280;59605;52.122;5.420;2022-07-06T08:29:56;102716.84;;;21.96;46.66
71770;BME280;59605;52.122;5.420;2022-07-06T08:32:22;102712.34;;;21.99;46.64
71770;BME280;59605;52.122;5.420;2022-07-06T08:35:10;102722.00;;;21.98;46.75
71770;BME280;59605;52.122;5.420;2022-07-06T08:37:36;102714.97;;;21.99;47.19
71770;BME280;59605;52.122;5.420;2022-07-06T08:40:03;102712.34;;;21.99;46.85
71770;BME280;59605;52.122;5.420;2022-07-06T08:42:32;102712.34;;;21.99;47.28
71770;BME280;59605;52.122;5.420;2022-07-06T08:45:00;102702.75;;;21.99;47.24
71770;BME280;59605;52.122;5.420;2022-07-06T08:47:27;102703.56;;;22.00;46.94
71770;BME280;59605;52.122;5.420;2022-07-06T08:49:55;102712.25;;;22.00;46.89
71770;BME280;59605;52.122;5.420;2022-07-06T08:52:22;102706.03;;;22.03;47.24
71770;BME280;59605;52.122;5.420;2022-07-06T08:54:50;102694.63;;;22.04;46.98
71770;BME280;59605;52.122;5.420;2022-07-06T08:57:17;102696.38;;;22.03;46.80
71770;BME280;59605;52.122;5.420;2022-07-06T08:59:43;102700.59;;;22.06;47.12
71770;BME280;59605;52.122;5.420;2022-07-06T09:02:10;102703.13;;;22.07;47.53
71770;BME280;59605;52.122;5.420;2022-07-06T09:04:37;102704.00;;;22.08;47.05
71770;BME280;59605;52.122;5.420;2022-07-06T09:07:04;102707.47;;;22.08;46.98
71770;BME280;59605;52.122;5.420;2022-07-06T09:09:31;102710.91;;;22.09;47.01
71770;BME280;59605;52.122;5.420;2022-07-06T09:11:57;102707.47;;;22.08;47.40
71770;BME280;59605;52.122;5.420;2022-07-06T09:14:29;102709.25;;;22.08;47.60
71770;BME280;59605;52.122;5.420;2022-07-06T09:17:04;102710.91;;;22.09;47.28
71770;BME280;59605;52.122;5.420;2022-07-06T09:19:32;102707.38;;;22.10;47.10
71770;BME280;59605;52.122;5.420;2022-07-06T09:21:59;102706.53;;;22.09;47.65
71770;BME280;59605;52.122;5.420;2022-07-06T09:24:26;102707.28;;;22.11;47.34
71770;BME280;59605;52.122;5.420;2022-07-06T09:26:55;102702.97;;;22.10;47.09
71770;BME280;59605;52.122;5.420;2022-07-06T09:29:28;102706.44;;;22.11;46.84
71770;BME280;59605;52.122;5.420;2022-07-06T09:32:00;102716.91;;;22.11;47.07
71770;BME280;59605;52.122;5.420;2022-07-06T09:34:43;102709.91;;;22.11;47.60
71770;BME280;59605;52.122;5.420;2022-07-06T09:37:11;102710.66;;;22.13;47.36
71770;BME280;59605;52.122;5.420;2022-07-06T09:39:38;102710.66;;;22.13;47.24
71770;BME280;59605;52.122;5.420;2022-07-06T09:42:06;102708.97;;;22.12;47.65
71770;BME280;59605;52.122;5.420;2022-07-06T09:44:38;102711.50;;;22.14;47.89
71770;BME280;59605;52.122;5.420;2022-07-06T09:47:07;102712.34;;;22.14;47.53
71770;BME280;59605;52.122;5.420;2022-07-06T09:49:36;102714.03;;;22.16;47.50
71770;BME280;59605;52.122;5.420;2022-07-06T09:52:05;102717.50;;;22.16;47.78
71770;BME280;59605;52.122;5.420;2022-07-06T09:54:36;102722.72;;;22.16;47.65
71770;BME280;59605;52.122;5.420;2022-07-06T09:57:05;102718.34;;;22.17;47.71
71770;BME280;59605;52.122;5.420;2022-07-06T09:59:35;102714.88;;;22.16;48.07
71770;BME280;59605;52.122;5.420;2022-07-06T10:02:06;102721.81;;;22.17;47.65
71770;BME280;59605;52.122;5.420;2022-07-06T10:04:33;102721.81;;;22.17;47.87
71770;BME280;59605;52.122;5.420;2022-07-06T10:07:00;102723.50;;;22.18;47.66
71770;BME280;59605;52.122;5.420;2022-07-06T10:09:28;102717.41;;;22.18;47.92
71770;BME280;59605;52.122;5.420;2022-07-06T10:11:57;102718.28;;;22.18;47.73
71770;BME280;59605;52.122;5.420;2022-07-06T10:14:31;102724.44;;;22.17;47.70
71770;BME280;59605;52.122;5.420;2022-07-06T10:16:59;102719.09;;;22.19;47.55
71770;BME280;59605;52.122;5.420;2022-07-06T10:19:28;102717.31;;;22.19;47.79
71770;BME280;59605;52.122;5.420;2022-07-06T10:22:01;102720.78;;;22.20;47.85
71770;BME280;59605;52.122;5.420;2022-07-06T10:24:28;102712.94;;;22.20;47.69
71770;BME280;59605;52.122;5.420;2022-07-06T10:26:56;102710.22;;;22.21;47.84
71770;BME280;59605;52.122;5.420;2022-07-06T10:29:24;102714.53;;;22.22;47.52
71770;BME280;59605;52.122;5.420;2022-07-06T10:31:50;102704.91;;;22.23;47.46
71770;BME280;59605;52.122;5.420;2022-07-06T10:34:19;102709.19;;;22.24;47.18
71770;BME280;59605;52.122;5.420;2022-07-06T10:36:51;102708.28;;;22.25;47.42
71770;BME280;59605;52.122;5.420;2022-07-06T10:39:34;102703.91;;;22.25;47.53
71770;BME280;59605;52.122;5.420;2022-07-06T10:42:41;102696.19;;;22.22;45.92
71770;BME280;59605;52.122;5.420;2022-07-06T10:45:13;102698.97;;;22.19;45.00
71770;BME280;59605;52.122;5.420;2022-07-06T10:47:41;102699.94;;;22.18;46.14
71770;BME280;59605;52.122;5.420;2022-07-06T10:50:08;102699.25;;;22.14;43.62
71770;BME280;59605;52.122;5.420;2022-07-06T10:52:58;102695.19;;;22.09;43.59
71770;BME280;59605;52.122;5.420;2022-07-06T10:55:42;102700.44;;;22.09;44.47
71770;BME280;59605;52.122;5.420;2022-07-06T10:58:09;102691.75;;;22.08;43.31
71770;BME280;59605;52.122;5.420;2022-07-06T11:00:54;102691.75;;;22.08;44.75
71770;BME280;59605;52.122;5.420;2022-07-06T11:03:32;102697.63;;;22.12;44.87
71770;BME280;59605;52.122;5.420;2022-07-06T11:06:17;102685.31;;;22.14;45.13
71770;BME280;59605;52.122;5.420;2022-07-06T11:08:51;102690.47;;;22.16;45.93
71770;BME280;59605;52.122;5.420;2022-07-06T11:11:25;102682.53;;;22.17;45.39
71770;BME280;59605;52.122;5.420;2022-07-06T11:16:31;102679.81;;;22.19;46.31
71770;BME280;59605;52.122;5.420;2022-07-06T11:19:13;102676.28;;;22.20;45.93
71770;BME280;59605;52.122;5.420;2022-07-06T11:21:48;102674.50;;;22.20;46.12
71770;BME280;59605;52.122;5.420;2022-07-06T11:24:18;102666.63;;;22.20;46.07
71770;BME280;59605;52.122;5.420;2022-07-06T11:26:48;102665.72;;;22.21;46.45
71770;BME280;59605;52.122;5.420;2022-07-06T11:29:16;102668.31;;;22.21;46.27
71770;BME280;59605;52.122;5.420;2022-07-06T11:31:47;102670.94;;;22.21;46.58
71770;BME280;59605;52.122;5.420;2022-07-06T11:36:47;102659.50;;;22.22;46.27
71770;BME280;59605;52.122;5.420;2022-07-06T11:39:14;102651.56;;;22.24;46.52
71770;BME280;59605;52.122;5.420;2022-07-06T11:41:42;102649.91;;;22.23;46.65
71770;BME280;59605;52.122;5.420;2022-07-06T11:44:16;102651.66;;;22.22;46.75
71770;BME280;59605;52.122;5.420;2022-07-06T11:46:42;102635.03;;;22.23;46.31
71770;BME280;59605;52.122;5.420;2022-07-06T11:49:09;102624.53;;;22.23;46.39
71770;BME280;59605;52.122;5.420;2022-07-06T11:51:37;102631.47;;;22.24;46.51
71770;BME280;59605;52.122;5.420;2022-07-06T11:54:12;102639.44;;;22.23;45.74
71770;BME280;59605;52.122;5.420;2022-07-06T11:56:57;102628.94;;;22.23;45.82
71770;BME280;59605;52.122;5.420;2022-07-06T11:59:29;102632.31;;;22.25;45.84
71770;BME280;59605;52.122;5.420;2022-07-06T12:02:11;102629.69;;;22.25;45.98
71770;BME280;59605;52.122;5.420;2022-07-06T12:04:43;102622.75;;;22.24;46.04
71770;BME280;59605;52.122;5.420;2022-07-06T12:07:13;102625.31;;;22.25;45.71
71770;BME280;59605;52.122;5.420;2022-07-06T12:09:41;102629.59;;;22.26;46.10
71770;BME280;59605;52.122;5.420;2022-07-06T12:12:09;102626.16;;;22.26;45.98
71770;BME280;59605;52.122;5.420;2022-07-06T12:14:37;102631.28;;;22.27;46.20
71770;BME280;59605;52.122;5.420;2022-07-06T12:17:06;102633.91;;;22.27;46.02
71770;BME280;59605;52.122;5.420;2022-07-06T12:19:33;102631.28;;;22.27;46.09
71770;BME280;59605;52.122;5.420;2022-07-06T12:22:00;102627.84;;;22.27;46.29
71770;BME280;59605;52.122;5.420;2022-07-06T12:24:31;102622.59;;;22.27;46.16
71770;BME280;59605;52.122;5.420;2022-07-06T12:27:09;102626.06;;;22.27;46.17
71770;BME280;59605;52.122;5.420;2022-07-06T12:29:36;102624.25;;;22.28;46.22
71770;BME280;59605;52.122;5.420;2022-07-06T12:32:03;102616.41;;;22.28;45.98
71770;BME280;59605;52.122;5.420;2022-07-06T12:34:32;102615.50;;;22.29;45.92
71770;BME280;59605;52.122;5.420;2022-07-06T12:37:07;102606.78;;;22.28;46.22
71770;BME280;59605;52.122;5.420;2022-07-06T12:39:45;102598.94;;;22.28;46.35
71770;BME280;59605;52.122;5.420;2022-07-06T12:42:14;102609.41;;;22.28;46.13
71770;BME280;59605;52.122;5.420;2022-07-06T12:47:17;102606.63;;;22.31;46.29
71770;BME280;59605;52.122;5.420;2022-07-06T12:49:43;102597.81;;;22.33;46.27
71770;BME280;59605;52.122;5.420;2022-07-06T12:52:14;102599.63;;;22.32;46.40
71770;BME280;59605;52.122;5.420;2022-07-06T12:54:46;102601.22;;;22.35;46.10
71770;BME280;59605;52.122;5.420;2022-07-06T13:02:43;102596.72;;;22.37;46.20
71770;BME280;59605;52.122;5.420;2022-07-06T13:05:30;102596.72;;;22.37;46.34
71770;BME280;59605;52.122;5.420;2022-07-06T13:07:57;102599.34;;;22.37;46.15
71770;BME280;59605;52.122;5.420;2022-07-06T13:10:24;102582.78;;;22.36;45.92